createdAt,value
2023-03-18T00:00:35.777Z,6.50
2023-03-18T00:03:03.578Z,6.90
2023-03-18T00:05:31.714Z,6.80
2023-03-18T00:07:59.888Z,7.30
2023-03-18T00:10:27.658Z,7.40
2023-03-18T00:12:55.654Z,6.40
2023-03-18T00:15:23.354Z,6.00
2023-03-18T00:17:52.397Z,6.37
2023-03-18T00:20:30.762Z,6.93
2023-03-18T00:22:59.061Z,6.13
2023-03-18T00:25:28.244Z,6.30
2023-03-18T00:27:56.732Z,6.47
2023-03-18T00:30:25.400Z,6.60
2023-03-18T00:32:54.663Z,5.67
2023-03-18T00:35:22.726Z,6.60
2023-03-18T00:37:50.437Z,6.33
2023-03-18T00:40:20.503Z,6.40
2023-03-18T00:42:57.581Z,6.60
2023-03-18T00:45:25.441Z,6.13
2023-03-18T00:47:54.818Z,6.10
2023-03-18T00:50:22.802Z,6.33
2023-03-18T00:52:50.596Z,6.27
2023-03-18T00:55:18.442Z,6.53
2023-03-18T00:57:46.433Z,6.13
2023-03-18T01:00:16.836Z,5.63
2023-03-18T01:02:45.163Z,6.07
2023-03-18T01:05:14.704Z,6.13
2023-03-18T01:07:43.531Z,5.60
2023-03-18T01:10:12.557Z,6.00
2023-03-18T01:12:42.177Z,5.40
2023-03-18T01:15:11.061Z,5.53
2023-03-18T01:17:39.265Z,6.27
2023-03-18T01:20:07.647Z,5.60
2023-03-18T01:22:36.955Z,6.17
2023-03-18T01:25:05.610Z,5.40
2023-03-18T01:27:37.527Z,5.87
2023-03-18T01:30:07.458Z,6.13
2023-03-18T01:32:35.987Z,5.90
2023-03-18T01:35:03.685Z,5.50
2023-03-18T01:37:32.365Z,5.90
2023-03-18T01:40:14.328Z,7.27
2023-03-18T01:42:43.324Z,6.40
2023-03-18T01:45:12.674Z,5.83
2023-03-18T01:47:44.828Z,5.87
2023-03-18T01:50:14.794Z,5.30
2023-03-18T01:52:46.617Z,6.10
2023-03-18T01:55:17.257Z,5.03
2023-03-18T01:57:45.248Z,5.50
2023-03-18T02:00:15.724Z,5.77
2023-03-18T02:02:47.005Z,5.50
2023-03-18T02:05:17.724Z,6.10
2023-03-18T02:07:46.101Z,5.23
2023-03-18T02:10:15.548Z,5.70
2023-03-18T02:12:46.157Z,5.73
2023-03-18T02:15:22.464Z,6.50
2023-03-18T02:17:53.408Z,5.00
2023-03-18T02:20:28.332Z,5.47
2023-03-18T02:22:58.936Z,5.60
2023-03-18T02:25:34.734Z,5.60
2023-03-18T02:28:07.217Z,6.10
2023-03-18T02:30:37.620Z,5.43
2023-03-18T02:33:07.931Z,5.47
2023-03-18T02:35:36.258Z,5.20
2023-03-18T02:38:04.846Z,5.03
2023-03-18T02:40:34.457Z,5.97
2023-03-18T02:43:18.064Z,5.90
2023-03-18T02:45:51.969Z,6.10
2023-03-18T02:48:21.404Z,5.40
2023-03-18T02:50:50.221Z,5.60
2023-03-18T02:53:17.921Z,5.30
2023-03-18T02:55:46.368Z,5.90
2023-03-18T02:58:14.144Z,5.57
2023-03-18T03:00:44.091Z,5.83
2023-03-18T03:03:12.871Z,6.13
2023-03-18T03:05:40.872Z,5.37
2023-03-18T03:08:10.482Z,6.20
2023-03-18T03:10:42.037Z,5.50
2023-03-18T03:13:11.584Z,5.80
2023-03-18T03:15:41.064Z,5.80
2023-03-18T03:18:11.899Z,6.00
2023-03-18T03:20:39.820Z,6.30
2023-03-18T03:23:08.227Z,5.87
2023-03-18T03:25:36.873Z,6.10
2023-03-18T03:28:05.007Z,6.10
2023-03-18T03:30:33.238Z,6.40
2023-03-18T03:33:01.310Z,6.10
2023-03-18T03:35:30.933Z,5.80
2023-03-18T03:37:59.764Z,9.10
2023-03-18T03:40:27.852Z,6.30
2023-03-18T03:42:55.604Z,5.47
2023-03-18T03:45:23.316Z,6.10
2023-03-18T03:47:51.710Z,5.90
2023-03-18T03:50:19.690Z,6.03
2023-03-18T03:52:49.153Z,6.60
2023-03-18T03:55:35.546Z,5.90
2023-03-18T03:58:03.490Z,6.90
2023-03-18T04:00:33.506Z,6.33
2023-03-18T04:03:01.676Z,7.03
2023-03-18T04:05:29.770Z,5.83
2023-03-18T04:08:01.546Z,6.10
2023-03-18T04:10:37.110Z,5.87
2023-03-18T04:13:06.522Z,6.47
2023-03-18T04:15:34.829Z,6.43
2023-03-18T04:18:09.118Z,6.13
2023-03-18T04:20:39.098Z,5.90
2023-03-18T04:23:19.303Z,6.30
2023-03-18T04:25:47.172Z,6.50
2023-03-18T04:28:16.495Z,6.03
2023-03-18T04:30:44.683Z,6.63
2023-03-18T04:33:17.857Z,6.27
2023-03-18T04:35:46.604Z,6.47
2023-03-18T04:38:15.713Z,6.10
2023-03-18T04:40:46.364Z,5.80
2023-03-18T04:43:14.376Z,6.20
2023-03-18T04:45:43.578Z,6.30
2023-03-18T04:48:13.832Z,6.63
2023-03-18T04:50:43.517Z,6.53
2023-03-18T04:53:15.606Z,5.83
2023-03-18T04:55:45.412Z,6.50
2023-03-18T04:58:15.592Z,6.23
2023-03-18T05:00:52.561Z,5.93
2023-03-18T05:03:30.389Z,5.90
2023-03-18T05:05:59.053Z,6.20
2023-03-18T05:08:36.020Z,6.00
2023-03-18T05:11:05.464Z,6.67
2023-03-18T05:13:36.215Z,6.13
2023-03-18T05:16:04.713Z,6.13
2023-03-18T05:18:33.628Z,6.57
2023-03-18T05:21:03.446Z,6.27
2023-03-18T05:23:31.123Z,5.80
2023-03-18T05:25:59.286Z,6.10
2023-03-18T05:28:30.643Z,6.10
2023-03-18T05:31:14.448Z,6.03
2023-03-18T05:33:43.000Z,6.00
2023-03-18T05:36:13.747Z,5.90
2023-03-18T05:39:01.890Z,6.23
2023-03-18T05:41:30.958Z,5.50
2023-03-18T05:44:00.347Z,5.70
2023-03-18T05:46:29.810Z,5.90
2023-03-18T05:49:13.674Z,7.00
2023-03-18T05:51:49.367Z,6.47
2023-03-18T05:54:28.017Z,6.67
2023-03-18T05:56:56.106Z,6.50
2023-03-18T05:59:25.294Z,6.57
2023-03-18T06:01:57.553Z,6.00
2023-03-18T06:04:27.105Z,6.90
2023-03-18T06:06:55.249Z,6.20
2023-03-18T06:09:23.748Z,6.60
2023-03-18T06:11:52.466Z,6.27
2023-03-18T06:14:20.459Z,6.40
2023-03-18T06:16:50.066Z,6.03
2023-03-18T06:19:21.936Z,6.83
2023-03-18T06:21:50.942Z,6.90
2023-03-18T06:24:18.610Z,6.30
2023-03-18T06:26:46.658Z,6.50
2023-03-18T06:29:15.092Z,6.70
2023-03-18T06:31:42.891Z,5.67
2023-03-18T06:34:15.133Z,7.13
2023-03-18T06:36:44.268Z,5.73
2023-03-18T06:39:17.944Z,6.10
2023-03-18T06:41:46.488Z,5.93
2023-03-18T06:44:42.811Z,5.83
2023-03-18T06:47:17.684Z,6.27
2023-03-18T06:49:54.701Z,6.00
2023-03-18T06:52:29.262Z,5.80
2023-03-18T06:55:02.839Z,5.70
2023-03-18T06:57:30.772Z,5.83
2023-03-18T06:59:58.674Z,6.30
2023-03-18T07:02:28.617Z,5.77
2023-03-18T07:05:01.764Z,6.27
2023-03-18T07:07:30.630Z,6.50
2023-03-18T07:09:59.273Z,6.17
2023-03-18T07:12:28.505Z,6.20
2023-03-18T07:14:56.887Z,6.47
2023-03-18T07:17:24.691Z,6.83
2023-03-18T07:19:52.674Z,6.93
2023-03-18T07:22:22.079Z,6.60
2023-03-18T07:24:49.851Z,6.30
2023-03-18T07:27:17.981Z,6.90
2023-03-18T07:29:46.428Z,6.87
2023-03-18T07:32:14.294Z,6.87
2023-03-18T07:34:43.550Z,7.27
2023-03-18T07:37:11.776Z,7.20
2023-03-18T07:39:40.993Z,7.10
2023-03-18T07:42:09.636Z,6.63
2023-03-18T07:44:37.733Z,7.83
2023-03-18T07:47:06.048Z,6.60
2023-03-18T07:49:33.714Z,6.20
2023-03-18T07:52:02.081Z,7.10
2023-03-18T07:54:30.158Z,6.83
2023-03-18T07:56:59.282Z,6.40
2023-03-18T07:59:27.847Z,6.43
2023-03-18T08:01:55.658Z,6.80
2023-03-18T08:04:23.735Z,6.33
2023-03-18T08:06:51.729Z,7.00
2023-03-18T08:09:21.180Z,7.20
2023-03-18T08:11:48.975Z,7.40
2023-03-18T08:14:18.261Z,6.63
2023-03-18T08:16:46.219Z,6.37
2023-03-18T08:19:13.960Z,8.13
2023-03-18T08:21:42.838Z,7.40
2023-03-18T08:24:10.932Z,7.67
2023-03-18T08:26:38.828Z,7.67
2023-03-18T08:29:06.868Z,7.43
2023-03-18T08:31:35.982Z,7.27
2023-03-18T08:34:03.906Z,7.17
2023-03-18T08:36:32.152Z,7.60
2023-03-18T08:39:00.204Z,7.60
2023-03-18T08:41:28.740Z,7.70
2023-03-18T08:43:57.318Z,7.03
2023-03-18T08:46:25.195Z,7.33
2023-03-18T08:48:56.451Z,7.00
2023-03-18T08:51:24.596Z,6.80
2023-03-18T08:53:52.741Z,8.07
2023-03-18T08:56:20.902Z,7.30
2023-03-18T08:58:49.198Z,7.13
2023-03-18T09:01:17.228Z,7.30
2023-03-18T09:03:46.055Z,6.83
2023-03-18T09:06:15.379Z,7.10
2023-03-18T09:08:43.720Z,6.70
2023-03-18T09:11:12.004Z,7.30
2023-03-18T09:13:39.834Z,7.10
2023-03-18T09:16:10.678Z,7.00
2023-03-18T09:18:39.725Z,7.13
2023-03-18T09:21:08.191Z,9.33
2023-03-18T09:23:37.172Z,6.90
2023-03-18T09:26:07.336Z,8.10
2023-03-18T09:28:35.159Z,7.00
2023-03-18T09:31:04.193Z,6.47
2023-03-18T09:33:33.639Z,8.00
2023-03-18T09:36:01.538Z,8.23
2023-03-18T09:38:29.458Z,6.40
2023-03-18T09:41:04.125Z,7.50
2023-03-18T09:43:37.483Z,8.63
2023-03-18T09:46:09.652Z,7.43
2023-03-18T09:48:43.484Z,7.50
2023-03-18T09:51:18.820Z,7.17
2023-03-18T09:53:49.306Z,7.07
2023-03-18T09:56:20.769Z,7.03
2023-03-18T09:58:51.521Z,6.97
2023-03-18T10:01:21.561Z,7.13
2023-03-18T10:03:51.351Z,7.63
2023-03-18T10:06:20.655Z,7.60
2023-03-18T10:08:53.776Z,8.13
2023-03-18T10:11:25.026Z,6.33
2023-03-18T10:14:10.053Z,6.93
2023-03-18T10:16:41.930Z,9.90
2023-03-18T10:19:10.386Z,6.47
2023-03-18T10:21:43.327Z,7.47
2023-03-18T10:24:20.750Z,6.67
2023-03-18T10:26:50.760Z,7.37
2023-03-18T10:29:34.134Z,7.00
2023-03-18T10:32:07.113Z,9.47
2023-03-18T10:34:40.758Z,7.17
2023-03-18T10:37:17.655Z,7.00
2023-03-18T10:39:48.457Z,6.43
2023-03-18T10:42:21.659Z,7.40
2023-03-18T10:44:49.911Z,6.53
2023-03-18T10:47:20.858Z,6.83
2023-03-18T10:49:51.698Z,6.67
2023-03-18T10:52:21.658Z,8.17
2023-03-18T10:54:52.683Z,14.33
2023-03-18T10:57:23.059Z,6.73
2023-03-18T10:59:52.849Z,7.73
2023-03-18T11:02:23.633Z,6.70
2023-03-18T11:04:54.348Z,6.87
2023-03-18T11:07:25.839Z,7.00
2023-03-18T11:09:54.327Z,7.40
2023-03-18T11:12:28.628Z,7.17
2023-03-18T11:14:57.870Z,6.10
2023-03-18T11:17:28.301Z,6.17
2023-03-18T11:20:05.803Z,6.30
2023-03-18T11:22:33.957Z,6.37
2023-03-18T11:25:02.932Z,6.27
2023-03-18T11:27:37.392Z,6.80
2023-03-18T11:30:11.157Z,7.40
2023-03-18T11:32:51.183Z,6.00
2023-03-18T11:35:20.336Z,7.40
2023-03-18T11:37:48.190Z,6.30
2023-03-18T11:40:34.399Z,5.57
2023-03-18T11:43:13.926Z,6.27
2023-03-18T11:45:45.055Z,6.30
2023-03-18T11:48:18.622Z,6.60
2023-03-18T11:50:55.326Z,7.50
2023-03-18T11:53:25.984Z,6.37
2023-03-18T11:55:59.073Z,6.30
2023-03-18T11:58:38.474Z,6.07
2023-03-18T12:01:12.096Z,6.60
2023-03-18T12:03:54.865Z,6.30
2023-03-18T12:06:23.277Z,6.73
2023-03-18T12:08:57.631Z,6.40
2023-03-18T12:11:32.938Z,5.47
2023-03-18T12:14:07.352Z,6.00
2023-03-18T12:16:48.686Z,6.07
2023-03-18T12:19:34.427Z,6.00
2023-03-18T12:22:08.011Z,6.63
2023-03-18T12:24:51.670Z,5.30
2023-03-18T12:27:24.440Z,6.20
2023-03-18T12:30:10.156Z,6.77
2023-03-18T12:32:41.908Z,6.50
2023-03-18T12:35:23.490Z,6.23
2023-03-18T12:37:59.740Z,6.20
2023-03-18T12:40:31.306Z,6.50
2023-03-18T12:43:13.073Z,5.33
2023-03-18T12:45:44.614Z,6.10
2023-03-18T12:48:13.669Z,7.90
2023-03-18T12:50:43.821Z,5.57
2023-03-18T12:53:16.596Z,6.43
2023-03-18T12:55:46.958Z,6.03
2023-03-18T12:58:17.546Z,7.70
2023-03-18T13:00:50.761Z,5.43
2023-03-18T13:03:26.621Z,5.50
2023-03-18T13:05:57.358Z,6.13
2023-03-18T13:08:42.504Z,5.67
2023-03-18T13:11:13.727Z,6.27
2023-03-18T13:13:44.045Z,5.80
2023-03-18T13:16:15.136Z,6.10
2023-03-18T13:18:45.532Z,5.60
2023-03-18T13:21:15.958Z,5.93
2023-03-18T13:24:14.010Z,5.43
2023-03-18T13:26:52.891Z,4.93
2023-03-18T13:29:27.204Z,5.10
2023-03-18T13:32:02.109Z,5.50
2023-03-18T13:34:48.386Z,5.33
2023-03-18T13:37:33.883Z,5.17
2023-03-18T13:40:20.336Z,5.33
2023-03-18T13:42:50.033Z,5.80
2023-03-18T13:45:25.222Z,5.70
2023-03-18T13:47:59.115Z,6.23
2023-03-18T13:50:35.869Z,5.47
2023-03-18T13:53:04.847Z,5.77
2023-03-18T13:55:34.740Z,5.67
2023-03-18T13:58:23.003Z,5.77
2023-03-18T14:01:09.911Z,5.90
2023-03-18T14:03:53.068Z,5.87
2023-03-18T14:06:24.318Z,5.77
2023-03-18T14:08:52.637Z,5.90
2023-03-18T14:11:45.404Z,6.00
2023-03-18T14:14:28.085Z,6.23
2023-03-18T14:16:58.621Z,6.77
2023-03-18T14:19:31.999Z,6.70
2023-03-18T14:22:08.553Z,6.30
2023-03-18T14:24:36.623Z,6.97
2023-03-18T14:27:17.470Z,6.83
2023-03-18T14:29:46.730Z,8.40
2023-03-18T14:32:32.123Z,6.40
2023-03-18T14:35:00.675Z,6.60
2023-03-18T14:37:32.489Z,5.87
2023-03-18T14:40:01.878Z,5.77
2023-03-18T14:42:45.737Z,4.93
2023-03-18T14:45:20.521Z,5.50
2023-03-18T14:47:50.907Z,6.30
2023-03-18T14:50:35.149Z,6.90
2023-03-18T14:53:06.277Z,5.80
2023-03-18T14:55:35.668Z,7.63
2023-03-18T14:58:04.218Z,7.93
2023-03-18T15:00:34.728Z,6.30
2023-03-18T15:03:04.876Z,6.23
2023-03-18T15:05:35.522Z,5.47
2023-03-18T15:08:03.547Z,6.83
2023-03-18T15:10:33.751Z,5.97
2023-03-18T15:13:07.112Z,5.20
2023-03-18T15:15:35.774Z,5.60
2023-03-18T15:18:05.973Z,6.70
2023-03-18T15:20:36.310Z,5.50
2023-03-18T15:23:08.031Z,5.87
2023-03-18T15:25:39.936Z,5.70
2023-03-18T15:28:07.994Z,4.90
2023-03-18T15:30:35.661Z,6.30
2023-03-18T15:33:07.261Z,5.80
2023-03-18T15:35:36.371Z,4.77
2023-03-18T15:38:10.412Z,5.27
2023-03-18T15:40:47.079Z,4.90
2023-03-18T15:43:19.204Z,4.80
2023-03-18T15:45:48.904Z,5.30
2023-03-18T15:48:23.461Z,5.30
2023-03-18T15:50:55.440Z,5.23
2023-03-18T15:53:24.874Z,4.97
2023-03-18T15:55:55.583Z,4.60
2023-03-18T15:58:27.962Z,5.50
2023-03-18T16:00:58.364Z,4.57
2023-03-18T16:03:27.114Z,4.90
2023-03-18T16:05:55.407Z,5.03
2023-03-18T16:08:24.238Z,5.37
2023-03-18T16:10:53.560Z,4.97
2023-03-18T16:13:24.428Z,5.50
2023-03-18T16:15:52.862Z,5.20
2023-03-18T16:18:21.209Z,4.30
2023-03-18T16:20:50.001Z,4.50
2023-03-18T16:23:18.858Z,4.40
2023-03-18T16:25:48.049Z,4.50
2023-03-18T16:28:17.776Z,5.33
2023-03-18T16:30:48.431Z,4.33
2023-03-18T16:33:18.029Z,5.20
2023-03-18T16:35:47.085Z,5.27
2023-03-18T16:38:16.661Z,5.70
2023-03-18T16:40:45.984Z,5.83
2023-03-18T16:43:21.905Z,5.63
2023-03-18T16:45:51.751Z,5.70
2023-03-18T16:48:21.450Z,6.60
2023-03-18T16:50:49.902Z,6.87
2023-03-18T16:53:23.547Z,5.10
2023-03-18T16:55:52.631Z,5.10
2023-03-18T16:58:25.051Z,6.13
2023-03-18T17:00:54.313Z,6.63
2023-03-18T17:03:22.598Z,7.37
2023-03-18T17:05:53.148Z,7.10
2023-03-18T17:08:21.736Z,10.77
2023-03-18T17:10:51.377Z,9.30
2023-03-18T17:13:23.109Z,10.00
2023-03-18T17:15:51.819Z,9.30
2023-03-18T17:18:21.985Z,8.83
2023-03-18T17:20:50.321Z,9.80
2023-03-18T17:23:19.542Z,10.37
2023-03-18T17:25:50.834Z,9.50
2023-03-18T17:28:25.268Z,8.03
2023-03-18T17:30:53.093Z,7.77
2023-03-18T17:33:24.166Z,8.63
2023-03-18T17:35:53.997Z,12.73
2023-03-18T17:38:22.089Z,11.50
2023-03-18T17:40:50.134Z,12.20
2023-03-18T17:43:19.380Z,10.63
2023-03-18T17:45:47.216Z,11.30
2023-03-18T17:48:17.871Z,10.83
2023-03-18T17:50:47.557Z,9.20
2023-03-18T17:53:23.295Z,10.17
2023-03-18T17:55:51.562Z,9.40
2023-03-18T17:58:20.321Z,10.23
2023-03-18T18:00:48.908Z,10.33
2023-03-18T18:06:17.325Z,11.67
2023-03-18T18:08:45.314Z,10.73
2023-03-18T18:11:16.131Z,12.87
2023-03-18T18:13:44.113Z,14.70
2023-03-18T18:16:12.542Z,13.70
2023-03-18T18:18:40.411Z,18.30
2023-03-18T18:21:14.582Z,15.67
2023-03-18T18:23:45.100Z,14.60
2023-03-18T18:26:14.763Z,12.43
2023-03-18T18:28:43.575Z,11.63
2023-03-18T18:31:12.767Z,12.60
2023-03-18T18:33:41.899Z,10.43
2023-03-18T18:36:13.465Z,10.90
2023-03-18T18:38:41.630Z,10.70
2023-03-18T18:41:11.065Z,11.70
2023-03-18T18:43:38.819Z,10.93
2023-03-18T18:46:11.843Z,12.73
2023-03-18T18:48:40.823Z,12.17
2023-03-18T18:51:15.115Z,11.70
2023-03-18T18:53:43.594Z,12.00
2023-03-18T18:56:15.808Z,11.80
2023-03-18T18:58:43.930Z,13.80
2023-03-18T19:01:13.343Z,13.90
2023-03-18T19:03:41.772Z,13.43
2023-03-18T19:06:19.201Z,14.93
2023-03-18T19:08:47.213Z,14.83
2023-03-18T19:11:16.282Z,16.10
2023-03-18T19:13:45.552Z,17.47
2023-03-18T19:16:18.890Z,16.90
2023-03-18T19:18:47.069Z,17.50
2023-03-18T19:21:14.852Z,16.30
2023-03-18T19:23:42.454Z,15.07
2023-03-18T19:26:12.598Z,15.97
2023-03-18T19:29:01.352Z,19.30
2023-03-18T19:31:31.529Z,15.73
2023-03-18T19:34:00.111Z,15.00
2023-03-18T19:36:29.290Z,14.63
2023-03-18T19:39:02.269Z,21.43
2023-03-18T19:41:54.093Z,16.43
2023-03-18T19:44:26.831Z,15.80
2023-03-18T19:46:55.275Z,13.80
2023-03-18T19:49:25.176Z,16.57
2023-03-18T19:51:53.499Z,16.87
2023-03-18T19:54:24.359Z,15.60
2023-03-18T19:56:52.567Z,17.83
2023-03-18T19:59:21.621Z,17.47
2023-03-18T20:01:51.261Z,33.50
2023-03-18T20:04:20.777Z,28.13
2023-03-18T20:06:49.981Z,35.10
2023-03-18T20:09:18.669Z,26.50
2023-03-18T20:11:46.799Z,24.00
2023-03-18T20:14:21.168Z,20.90
2023-03-18T20:16:49.437Z,18.77
2023-03-18T20:19:18.500Z,17.87
2023-03-18T20:21:46.812Z,14.87
2023-03-18T20:24:16.276Z,16.27
2023-03-18T20:26:44.159Z,17.27
2023-03-18T20:29:16.790Z,13.03
2023-03-18T20:31:45.813Z,16.93
2023-03-18T20:34:13.938Z,13.33
2023-03-18T20:36:45.065Z,17.43
2023-03-18T20:39:18.507Z,11.43
2023-03-18T20:41:46.848Z,12.00
2023-03-18T20:44:14.877Z,11.00
2023-03-18T20:46:42.922Z,11.90
2023-03-18T20:49:11.196Z,17.90
2023-03-18T20:51:41.403Z,21.20
2023-03-18T20:54:18.629Z,18.50
2023-03-18T20:56:46.833Z,13.87
2023-03-18T20:59:14.862Z,12.53
2023-03-18T21:01:42.810Z,15.03
2023-03-18T21:04:12.201Z,15.27
2023-03-18T21:06:39.912Z,14.23
2023-03-18T21:09:10.150Z,15.37
2023-03-18T21:11:39.665Z,13.20
2023-03-18T21:14:07.369Z,20.27
2023-03-18T21:16:37.710Z,26.00
2023-03-18T21:19:06.119Z,11.33
2023-03-18T21:21:35.929Z,14.40
2023-03-18T21:24:04.254Z,13.03
2023-03-18T21:26:33.021Z,17.00
2023-03-18T21:29:02.392Z,12.90
2023-03-18T21:31:31.869Z,14.50
2023-03-18T21:34:00.462Z,32.53
2023-03-18T21:36:28.125Z,26.37
2023-03-18T21:38:56.262Z,13.10
2023-03-18T21:41:25.259Z,12.50
2023-03-18T21:43:52.966Z,11.63
2023-03-18T21:46:24.838Z,12.37
2023-03-18T21:48:53.337Z,13.63
2023-03-18T21:51:37.634Z,13.00
2023-03-18T21:54:07.198Z,14.33
2023-03-18T21:56:34.930Z,15.17
2023-03-18T21:59:02.917Z,14.73
2023-03-18T22:01:32.851Z,19.33
2023-03-18T22:04:04.514Z,14.10
2023-03-18T22:06:32.610Z,16.77
2023-03-18T22:09:00.511Z,19.43
2023-03-18T22:11:28.699Z,18.30
2023-03-18T22:13:56.548Z,17.53
2023-03-18T22:16:24.269Z,18.00
2023-03-18T22:18:53.406Z,13.53
2023-03-18T22:21:24.478Z,13.47
2023-03-18T22:23:52.281Z,12.43
2023-03-18T22:26:21.457Z,15.53
2023-03-18T22:28:50.778Z,16.83
2023-03-18T22:31:20.031Z,15.40
2023-03-18T22:33:48.312Z,13.67
2023-03-18T22:36:17.886Z,23.67
2023-03-18T22:38:46.209Z,33.40
2023-03-18T22:41:18.143Z,16.77
2023-03-18T22:43:46.848Z,15.20
2023-03-18T22:46:14.604Z,13.43
2023-03-18T22:48:43.233Z,15.10
2023-03-18T22:51:19.127Z,14.40
2023-03-18T22:53:50.376Z,14.80
2023-03-18T22:56:18.758Z,15.57
2023-03-18T22:58:46.616Z,14.50
2023-03-18T23:01:16.353Z,14.83
2023-03-18T23:03:46.439Z,29.33
2023-03-18T23:06:15.223Z,14.90
2023-03-18T23:08:42.977Z,17.03
2023-03-18T23:11:12.860Z,18.80
2023-03-18T23:13:41.517Z,17.40
2023-03-18T23:16:12.843Z,16.63
2023-03-18T23:18:40.609Z,14.83
2023-03-18T23:21:08.261Z,14.37
2023-03-18T23:23:36.175Z,16.30
2023-03-18T23:26:04.020Z,15.13
2023-03-18T23:28:43.659Z,14.33
2023-03-18T23:31:12.699Z,14.33
2023-03-18T23:33:40.741Z,14.00
2023-03-18T23:36:09.257Z,12.87
2023-03-18T23:38:37.801Z,12.77
2023-03-18T23:41:06.153Z,12.70
2023-03-18T23:43:35.499Z,12.13
2023-03-18T23:46:03.889Z,13.00
2023-03-18T23:48:32.441Z,12.77
2023-03-18T23:51:00.604Z,13.30
2023-03-18T23:53:28.773Z,12.40
2023-03-18T23:55:56.688Z,12.50
2023-03-18T23:58:24.580Z,12.67
